Time;durP1;ratioP1;P1;durP2;ratioP2;P2;SDS_P1;SDS_P2;PMS_P1;PMS_P2;Temp;Humidity;BMP_temperature;BMP_pressure;BME280_temperature;BME280_humidity;BME280_pressure;Samples;Min_cycle;Max_cycle;Signal;HPM_P1;HPM_P2
2022/10/09 00:00:49;;;;;;;6.65;3.20;;;8.20;99.90;;;;;;4975268;28;20019;-81
2022/10/09 00:03:17;;;;;;;5.07;3.20;;;8.20;99.90;;;;;;4974702;28;20105;-82
2022/10/09 00:05:46;;;;;;;4.72;2.92;;;8.20;99.90;;;;;;4975020;28;20046;-82
2022/10/09 00:08:15;;;;;;;5.60;3.30;;;8.10;99.90;;;;;;4974164;28;20034;-82
2022/10/09 00:10:42;;;;;;;4.82;2.90;;;8.20;99.90;;;;;;4974064;28;20022;-82
2022/10/09 00:13:09;;;;;;;4.88;2.70;;;8.10;99.90;;;;;;4973849;28;20114;-81
2022/10/09 00:15:43;;;;;;;5.22;2.70;;;8.10;99.90;;;;;;4973930;28;20035;-81
2022/10/09 00:18:11;;;;;;;5.18;3.25;;;8.10;99.90;;;;;;4973763;28;20038;-82
2022/10/09 00:20:42;;;;;;;6.18;3.38;;;8.00;99.90;;;;;;4974828;28;20023;-81
2022/10/09 00:23:10;;;;;;;4.30;3.05;;;8.10;99.90;;;;;;4973844;28;20034;-81
2022/10/09 00:25:36;;;;;;;5.97;3.13;;;8.00;99.90;;;;;;4974600;28;20053;-80
2022/10/09 00:28:03;;;;;;;7.05;3.40;;;8.00;99.90;;;;;;4973377;28;20054;-81
2022/10/09 00:30:30;;;;;;;6.22;2.83;;;7.90;99.90;;;;;;4989470;28;20022;-81
2022/10/09 00:32:56;;;;;;;4.60;3.00;;;7.90;99.90;;;;;;4974865;28;20074;-81
2022/10/09 00:35:24;;;;;;;5.28;2.72;;;7.90;99.90;;;;;;4979603;28;20035;-81
2022/10/09 00:37:50;;;;;;;8.10;3.47;;;7.90;99.90;;;;;;4973043;28;20055;-80
2022/10/09 00:40:16;;;;;;;4.70;2.80;;;7.80;99.90;;;;;;4980565;28;20027;-79
2022/10/09 00:42:45;;;;;;;5.05;2.97;;;7.80;99.90;;;;;;4984319;28;20034;-80
2022/10/09 00:45:20;;;;;;;4.93;3.00;;;7.80;99.90;;;;;;4988471;28;21046;-81
2022/10/09 00:47:53;;;;;;;5.07;3.30;;;7.90;99.90;;;;;;4981547;28;20038;-80
2022/10/09 00:50:27;;;;;;;5.60;3.50;;;7.80;99.90;;;;;;4976412;28;20027;-81
2022/10/09 00:52:57;;;;;;;5.38;2.95;;;7.70;99.90;;;;;;4970120;28;20296;-81
2022/10/09 00:55:24;;;;;;;5.93;3.30;;;7.70;99.90;;;;;;4978251;28;20037;-80
2022/10/09 00:57:54;;;;;;;4.18;2.47;;;7.70;99.90;;;;;;4978307;28;20029;-81
2022/10/09 01:00:21;;;;;;;5.75;3.40;;;7.80;99.90;;;;;;4978904;28;20023;-81
2022/10/09 01:02:48;;;;;;;6.07;3.25;;;7.70;99.90;;;;;;4978233;28;20078;-81
2022/10/09 01:05:14;;;;;;;8.02;3.15;;;7.70;99.90;;;;;;4978551;28;20406;-81
2022/10/09 01:08:26;;;;;;;4.63;3.00;;;7.70;99.90;;;;;;4978830;28;20026;-81
2022/10/09 01:11:03;;;;;;;5.65;3.35;;;7.70;99.90;;;;;;4978442;28;20098;-81
2022/10/09 01:13:45;;;;;;;5.10;2.97;;;7.70;99.90;;;;;;4977685;28;20066;-81
2022/10/09 01:16:27;;;;;;;4.20;2.53;;;7.60;99.90;;;;;;4964770;28;20023;-81
2022/10/09 01:19:29;;;;;;;4.85;2.72;;;7.60;99.90;;;;;;4977672;28;20398;-81
2022/10/09 01:22:28;;;;;;;4.68;2.80;;;7.60;99.90;;;;;;4978329;28;20026;-81
2022/10/09 01:25:08;;;;;;;5.75;2.58;;;7.50;99.90;;;;;;4990890;28;20096;-80
2022/10/09 01:27:36;;;;;;;5.07;2.55;;;7.50;99.90;;;;;;4985966;28;20019;-81
2022/10/09 01:30:10;;;;;;;4.35;2.78;;;7.50;99.90;;;;;;4982691;28;20374;-81
2022/10/09 01:32:46;;;;;;;5.60;2.20;;;7.50;99.90;;;;;;4978611;28;20031;-81
2022/10/09 01:35:16;;;;;;;4.28;2.70;;;7.40;99.90;;;;;;4964472;28;20474;-80
2022/10/09 01:37:45;;;;;;;5.63;2.80;;;7.50;99.90;;;;;;4977447;28;20023;-81
2022/10/09 01:40:14;;;;;;;4.10;2.35;;;7.50;99.90;;;;;;4978391;28;20414;-80
2022/10/09 01:42:40;;;;;;;5.43;2.78;;;7.40;99.90;;;;;;4977255;28;20101;-81
2022/10/09 01:45:07;;;;;;;6.10;2.50;;;7.40;99.90;;;;;;4992735;28;20463;-81
2022/10/09 01:47:33;;;;;;;5.93;2.63;;;7.40;99.90;;;;;;4976735;28;20525;-81
2022/10/09 01:50:27;;;;;;;4.15;2.33;;;7.40;99.90;;;;;;4976640;28;20097;-81
2022/10/09 01:52:57;;;;;;;7.60;3.10;;;7.40;99.90;;;;;;4978257;28;20035;-83
2022/10/09 01:55:56;;;;;;;4.55;2.90;;;7.30;99.90;;;;;;4977412;28;20053;-81
2022/10/09 01:58:51;;;;;;;3.35;2.20;;;7.30;99.90;;;;;;4976390;28;20031;-81
2022/10/09 02:01:24;;;;;;;3.65;2.10;;;7.20;99.90;;;;;;4976729;28;20030;-82
2022/10/09 02:03:52;;;;;;;3.72;2.40;;;7.20;99.90;;;;;;4976436;28;20038;-81
2022/10/09 02:06:19;;;;;;;4.88;3.10;;;7.20;99.90;;;;;;4976061;28;20510;-80
2022/10/09 02:08:50;;;;;;;5.15;2.42;;;7.20;99.90;;;;;;4976275;28;20023;-81
2022/10/09 02:11:17;;;;;;;4.25;2.50;;;7.20;99.90;;;;;;4970574;28;20034;-82
2022/10/09 02:13:45;;;;;;;4.63;2.80;;;7.10;99.90;;;;;;4971206;28;20395;-81
2022/10/09 02:16:42;;;;;;;4.10;2.33;;;7.10;99.90;;;;;;4977922;28;20038;-81
2022/10/09 02:19:26;;;;;;;4.70;2.72;;;7.10;99.90;;;;;;4976319;28;20066;-82
2022/10/09 02:22:29;;;;;;;6.25;2.78;;;7.00;99.90;;;;;;4976153;28;20035;-81
2022/10/09 02:25:02;;;;;;;3.75;2.42;;;7.00;99.90;;;;;;4947880;29;20032;-81
2022/10/09 02:27:28;;;;;;;5.32;2.75;;;7.10;99.90;;;;;;4955315;29;20126;-80
2022/10/09 02:29:54;;;;;;;3.60;2.42;;;7.00;99.90;;;;;;4964355;29;20038;-81
2022/10/09 02:32:20;;;;;;;5.00;2.70;;;7.00;99.90;;;;;;4977512;28;20402;-82
2022/10/09 02:34:47;;;;;;;5.43;2.58;;;7.00;99.90;;;;;;4968234;28;20031;-81
2022/10/09 02:37:14;;;;;;;4.85;2.58;;;7.00;99.90;;;;;;4976869;28;20034;-82
2022/10/09 02:39:41;;;;;;;5.20;2.40;;;7.00;99.90;;;;;;4978909;28;20031;-82
2022/10/09 02:42:08;;;;;;;5.03;2.78;;;6.90;99.90;;;;;;4977913;28;20019;-82
2022/10/09 02:44:34;;;;;;;5.40;3.08;;;7.00;99.90;;;;;;4978582;28;20066;-82
2022/10/09 02:47:01;;;;;;;5.75;3.30;;;7.00;99.90;;;;;;4992362;28;20026;-82
2022/10/09 02:49:27;;;;;;;7.20;3.33;;;7.00;99.90;;;;;;4976113;28;20490;-81
2022/10/09 02:51:53;;;;;;;6.00;3.30;;;6.90;99.90;;;;;;4976418;28;20027;-83
2022/10/09 02:54:19;;;;;;;4.57;2.42;;;6.90;99.90;;;;;;4975459;28;20043;-81
2022/10/09 02:56:45;;;;;;;5.38;2.83;;;6.90;99.90;;;;;;4958238;28;20023;-81
2022/10/09 02:59:11;;;;;;;4.70;2.72;;;6.90;99.90;;;;;;4973436;28;20039;-82
2022/10/09 03:01:37;;;;;;;4.15;2.53;;;6.80;99.90;;;;;;4963276;28;20027;-82
2022/10/09 03:04:03;;;;;;;4.95;3.30;;;6.80;99.90;;;;;;4972827;28;20414;-81
2022/10/09 03:06:30;;;;;;;4.68;2.70;;;6.80;99.90;;;;;;4966952;28;20564;-82
2022/10/09 03:08:56;;;;;;;3.42;2.47;;;6.80;99.90;;;;;;4975724;28;20026;-80
2022/10/09 03:11:24;;;;;;;4.43;2.60;;;6.80;99.90;;;;;;4976228;28;20034;-81
2022/10/09 03:13:51;;;;;;;3.63;2.53;;;6.80;99.90;;;;;;4964173;28;20114;-81
2022/10/09 03:16:23;;;;;;;5.10;2.63;;;6.80;99.90;;;;;;4976852;28;20074;-81
2022/10/09 03:18:50;;;;;;;4.03;2.25;;;6.80;99.90;;;;;;4959547;28;20039;-81
2022/10/09 03:21:19;;;;;;;4.72;2.83;;;6.70;99.90;;;;;;4976817;28;20023;-81
2022/10/09 03:23:45;;;;;;;4.82;2.58;;;6.70;99.90;;;;;;4975218;28;20050;-80
2022/10/09 03:26:17;;;;;;;5.38;2.88;;;6.70;99.90;;;;;;4975611;28;20089;-81
2022/10/09 03:28:46;;;;;;;4.38;2.45;;;6.70;99.90;;;;;;4978867;28;20467;-82
2022/10/09 03:31:17;;;;;;;4.75;2.85;;;6.60;99.90;;;;;;4968727;28;20109;-82
2022/10/09 03:33:43;;;;;;;3.88;2.65;;;6.60;99.90;;;;;;4978228;28;20022;-82
2022/10/09 03:36:10;;;;;;;4.70;2.63;;;6.60;99.90;;;;;;4975252;28;20394;-82
2022/10/09 03:38:36;;;;;;;6.32;3.08;;;6.60;99.90;;;;;;4974981;28;20031;-80
2022/10/09 03:41:04;;;;;;;4.25;2.78;;;6.60;99.90;;;;;;4976603;28;20038;-80
2022/10/09 03:43:31;;;;;;;4.07;2.63;;;6.60;99.90;;;;;;4975329;28;20054;-81
2022/10/09 03:45:57;;;;;;;3.65;2.50;;;6.60;99.90;;;;;;4975180;28;20031;-81
2022/10/09 03:48:24;;;;;;;3.45;2.42;;;6.60;99.90;;;;;;4974969;28;20054;-81
2022/10/09 03:50:50;;;;;;;5.07;2.95;;;6.50;99.90;;;;;;4974471;28;20433;-81
2022/10/09 03:53:16;;;;;;;4.88;2.75;;;6.50;99.90;;;;;;4975407;28;20035;-81
2022/10/09 03:55:43;;;;;;;4.93;2.90;;;6.50;99.90;;;;;;4974655;28;20027;-81
2022/10/09 03:58:09;;;;;;;4.18;2.22;;;6.50;99.90;;;;;;4975454;28;20027;-81
2022/10/09 04:00:35;;;;;;;5.38;2.83;;;6.50;99.90;;;;;;4974733;28;20073;-81
2022/10/09 04:03:02;;;;;;;5.30;2.58;;;6.50;99.90;;;;;;4975753;28;20390;-82
2022/10/09 04:05:31;;;;;;;4.38;2.40;;;6.40;99.90;;;;;;4990399;28;20450;-81
2022/10/09 04:07:57;;;;;;;3.67;2.25;;;6.40;99.90;;;;;;4974542;28;20086;-82
2022/10/09 04:10:24;;;;;;;4.57;2.45;;;6.40;99.90;;;;;;4974625;28;20145;-81
2022/10/09 04:12:50;;;;;;;4.05;2.60;;;6.40;99.90;;;;;;4974805;28;20039;-82
2022/10/09 04:15:16;;;;;;;5.30;2.17;;;6.40;99.90;;;;;;4981512;28;20027;-80
2022/10/09 04:17:42;;;;;;;4.13;2.38;;;6.40;99.90;;;;;;4989574;28;20052;-79
2022/10/09 04:20:08;;;;;;;3.63;2.20;;;6.40;99.90;;;;;;4991853;28;20030;-81
2022/10/09 04:22:34;;;;;;;3.80;2.33;;;6.30;99.90;;;;;;4976652;28;20027;-81
2022/10/09 04:25:00;;;;;;;4.43;2.13;;;6.30;99.90;;;;;;4975628;28;20118;-82
2022/10/09 04:27:26;;;;;;;4.43;2.38;;;6.40;99.90;;;;;;4977055;28;20046;-81
2022/10/09 04:29:53;;;;;;;3.90;2.28;;;6.30;99.90;;;;;;4975339;28;20027;-81
2022/10/09 04:32:18;;;;;;;4.90;2.50;;;6.30;99.90;;;;;;4975631;28;20034;-81
2022/10/09 04:34:44;;;;;;;5.00;2.63;;;6.30;99.90;;;;;;4974932;28;20106;-81
2022/10/09 04:37:10;;;;;;;5.90;3.00;;;6.20;99.90;;;;;;4976243;28;20356;-81
2022/10/09 04:39:36;;;;;;;4.65;2.75;;;6.20;99.90;;;;;;4975879;28;20027;-81
2022/10/09 04:42:03;;;;;;;4.47;2.60;;;6.20;99.90;;;;;;4976351;28;20114;-82
2022/10/09 04:44:29;;;;;;;4.20;2.40;;;6.20;99.90;;;;;;4974433;28;20023;-81
2022/10/09 04:46:58;;;;;;;3.83;2.60;;;6.20;99.90;;;;;;4974000;28;20038;-81
2022/10/09 04:49:24;;;;;;;3.53;2.40;;;6.20;99.90;;;;;;4974550;28;20559;-82
2022/10/09 04:51:50;;;;;;;3.65;2.30;;;6.20;99.90;;;;;;4974757;28;20026;-82
2022/10/09 04:54:16;;;;;;;3.80;2.15;;;6.20;99.90;;;;;;4974146;28;20050;-82
2022/10/09 04:56:42;;;;;;;4.40;2.20;;;6.20;99.90;;;;;;4975780;28;20101;-83
2022/10/09 04:59:08;;;;;;;4.15;1.98;;;6.20;99.90;;;;;;4973662;28;20474;-82
2022/10/09 05:01:36;;;;;;;4.03;2.20;;;6.20;99.90;;;;;;4973100;28;20471;-82
2022/10/09 05:04:02;;;;;;;3.03;1.83;;;6.20;99.90;;;;;;4967881;28;20019;-82
2022/10/09 05:06:28;;;;;;;3.97;2.20;;;6.20;99.90;;;;;;4968557;28;20074;-81
2022/10/09 05:08:55;;;;;;;3.55;2.00;;;6.20;99.90;;;;;;4974082;28;20026;-83
2022/10/09 05:11:23;;;;;;;5.28;2.42;;;6.20;99.90;;;;;;4974431;28;20463;-81
2022/10/09 05:13:53;;;;;;;3.20;1.85;;;6.20;99.90;;;;;;4973745;28;20109;-81
2022/10/09 05:16:26;;;;;;;3.67;2.25;;;6.10;99.90;;;;;;4974606;28;20027;-81
2022/10/09 05:18:55;;;;;;;4.30;2.33;;;6.10;99.90;;;;;;4973935;28;20027;-81
2022/10/09 05:21:22;;;;;;;4.47;2.15;;;6.10;99.90;;;;;;4974612;28;20022;-82
2022/10/09 05:23:49;;;;;;;4.53;2.03;;;6.10;99.90;;;;;;4973385;28;20120;-81
2022/10/09 05:26:19;;;;;;;3.78;2.40;;;6.10;99.90;;;;;;4973585;28;20065;-82
2022/10/09 05:28:46;;;;;;;3.47;2.10;;;6.10;99.90;;;;;;4974811;28;20026;-82
2022/10/09 05:31:17;;;;;;;3.67;2.25;;;6.00;99.90;;;;;;4973685;28;20552;-82
2022/10/09 05:33:45;;;;;;;3.53;2.05;;;6.00;99.90;;;;;;4976428;28;20126;-81
2022/10/09 05:36:11;;;;;;;3.70;1.98;;;6.00;99.90;;;;;;4963331;28;20030;-82
2022/10/09 05:38:37;;;;;;;3.60;2.45;;;6.00;99.90;;;;;;4978451;28;20031;-82
2022/10/09 05:41:06;;;;;;;3.60;2.08;;;6.00;99.90;;;;;;4977887;28;20023;-82
2022/10/09 05:43:37;;;;;;;4.40;2.42;;;6.00;99.90;;;;;;4977007;28;20089;-82
2022/10/09 05:46:11;;;;;;;2.50;1.65;;;5.90;99.90;;;;;;4985599;28;20488;-82
2022/10/09 05:48:39;;;;;;;3.38;2.22;;;5.90;99.90;;;;;;4985568;28;20051;-83
2022/10/09 05:51:28;;;;;;;4.20;1.88;;;5.90;99.90;;;;;;4978571;28;20026;-82
2022/10/09 05:53:55;;;;;;;3.58;2.00;;;6.00;99.90;;;;;;4976676;28;20046;-80
2022/10/09 05:56:36;;;;;;;3.65;1.70;;;5.90;99.90;;;;;;4976638;28;20033;-81
2022/10/09 05:59:05;;;;;;;3.72;1.88;;;6.00;99.90;;;;;;4977541;28;20118;-80
2022/10/09 06:01:33;;;;;;;3.55;1.63;;;6.00;99.90;;;;;;4980190;28;20023;-80
2022/10/09 06:04:00;;;;;;;3.15;1.60;;;6.00;99.90;;;;;;4980603;28;20027;-79
2022/10/09 06:06:32;;;;;;;3.78;2.00;;;6.00;99.90;;;;;;5007587;28;20459;-81
2022/10/09 06:08:58;;;;;;;2.78;2.08;;;6.00;99.90;;;;;;4981469;28;20054;-81
2022/10/09 06:11:30;;;;;;;3.60;2.20;;;6.00;99.90;;;;;;4976915;28;20027;-81
2022/10/09 06:14:00;;;;;;;2.90;2.00;;;6.10;99.90;;;;;;4977425;28;20039;-81
2022/10/09 06:16:29;;;;;;;3.28;2.03;;;6.10;99.90;;;;;;4976643;28;20038;-81
2022/10/09 06:18:56;;;;;;;4.28;2.22;;;6.10;99.90;;;;;;4975849;28;20027;-82
2022/10/09 06:21:22;;;;;;;4.45;2.10;;;6.10;99.90;;;;;;4976814;28;20027;-82
2022/10/09 06:23:54;;;;;;;2.65;1.65;;;6.10;99.90;;;;;;4975749;28;20026;-82
2022/10/09 06:26:22;;;;;;;2.75;1.63;;;6.10;99.90;;;;;;4975849;28;20030;-82
2022/10/09 06:28:49;;;;;;;2.72;1.75;;;6.10;99.90;;;;;;4975983;28;20033;-82
2022/10/09 06:31:19;;;;;;;3.30;1.77;;;6.10;99.90;;;;;;4976624;28;20103;-82
2022/10/09 06:33:46;;;;;;;2.92;1.70;;;6.20;99.90;;;;;;4975432;28;20059;-82
2022/10/09 06:36:18;;;;;;;3.42;2.03;;;6.20;99.90;;;;;;4975790;28;20038;-81
2022/10/09 06:38:44;;;;;;;2.88;1.70;;;6.20;99.90;;;;;;4975760;28;20738;-82
2022/10/09 06:41:15;;;;;;;3.53;1.92;;;6.30;99.90;;;;;;4975341;28;20027;-82
2022/10/09 06:43:42;;;;;;;3.20;1.92;;;6.40;99.90;;;;;;4976633;28;20019;-82
2022/10/09 06:46:12;;;;;;;3.40;1.90;;;6.40;99.90;;;;;;4991214;28;20050;-82
2022/10/09 06:48:39;;;;;;;2.83;1.67;;;6.40;99.90;;;;;;4972293;28;20078;-82
2022/10/09 06:51:14;;;;;;;3.28;1.70;;;6.50;99.90;;;;;;4974535;28;20472;-82
2022/10/09 06:53:47;;;;;;;3.22;1.70;;;6.50;99.90;;;;;;4975781;28;20038;-82
2022/10/09 06:56:16;;;;;;;2.88;1.90;;;6.50;99.90;;;;;;4975285;28;20029;-82
2022/10/09 06:58:45;;;;;;;3.75;1.83;;;6.50;99.90;;;;;;4974566;28;20089;-82
2022/10/09 07:01:14;;;;;;;3.65;1.88;;;6.60;99.90;;;;;;4957954;28;20159;-82
2022/10/09 07:03:42;;;;;;;3.38;1.85;;;6.60;99.90;;;;;;4972063;28;20031;-82
2022/10/09 07:06:10;;;;;;;3.00;1.80;;;6.60;99.90;;;;;;4965389;28;20046;-82
2022/10/09 07:08:38;;;;;;;3.33;1.63;;;6.70;99.90;;;;;;4973871;28;20030;-81
2022/10/09 07:11:25;;;;;;;3.35;1.70;;;6.80;99.90;;;;;;4975548;28;20037;-82
2022/10/09 07:13:55;;;;;;;2.35;1.90;;;6.90;99.90;;;;;;4973697;28;20035;-82
2022/10/09 07:16:28;;;;;;;3.40;2.00;;;7.00;99.90;;;;;;4975004;28;20027;-82
2022/10/09 07:18:54;;;;;;;2.67;1.73;;;7.10;99.90;;;;;;4974129;28;20470;-83
2022/10/09 07:21:21;;;;;;;3.17;1.88;;;7.10;99.90;;;;;;4973640;28;20026;-83
2022/10/09 07:23:47;;;;;;;5.18;2.15;;;7.20;99.90;;;;;;4974743;28;20077;-83
2022/10/09 07:26:20;;;;;;;5.25;2.63;;;7.30;99.90;;;;;;4974678;28;20038;-82
2022/10/09 07:28:47;;;;;;;;;;;7.40;99.90;;;;;;4974269;28;20074;-83
2022/10/09 07:31:14;;;;;;;3.72;2.10;;;7.50;99.90;;;;;;4973068;28;19910;-82
2022/10/09 07:33:40;;;;;;;7.70;2.25;;;7.60;99.90;;;;;;4973443;28;20118;-82
2022/10/09 07:36:09;;;;;;;3.63;2.10;;;7.70;99.90;;;;;;4974137;28;20455;-82
2022/10/09 07:38:39;;;;;;;3.35;1.73;;;7.80;99.90;;;;;;4973895;28;20426;-82
2022/10/09 07:41:13;;;;;;;2.80;1.77;;;7.90;99.90;;;;;;4973163;28;20125;-82
2022/10/09 07:43:43;;;;;;;3.88;1.67;;;8.00;99.90;;;;;;4973187;28;20506;-82
2022/10/09 07:46:14;;;;;;;5.13;1.85;;;8.00;99.90;;;;;;4973313;28;20033;-82
2022/10/09 07:48:41;;;;;;;3.15;2.05;;;8.10;99.90;;;;;;4973711;28;20034;-81
2022/10/09 07:51:29;;;;;;;5.60;2.42;;;8.20;99.90;;;;;;4974310;28;20535;-82
2022/10/09 07:54:00;;;;;;;3.17;2.17;;;8.30;99.90;;;;;;4978604;28;20085;-81
2022/10/09 07:56:35;;;;;;;4.13;1.95;;;8.40;99.90;;;;;;4998667;28;20027;-81
2022/10/09 07:59:06;;;;;;;4.13;2.22;;;8.50;99.90;;;;;;4993525;28;20045;-82
2022/10/09 08:01:34;;;;;;;3.20;1.80;;;8.60;99.90;;;;;;4989971;28;20034;-82
2022/10/09 08:04:02;;;;;;;5.28;2.30;;;8.70;99.90;;;;;;4970065;28;20027;-83
2022/10/09 08:06:30;;;;;;;3.55;2.22;;;8.80;99.90;;;;;;4967782;28;20051;-82
2022/10/09 08:09:00;;;;;;;3.92;2.28;;;8.80;99.90;;;;;;4975382;28;20055;-82
2022/10/09 08:11:27;;;;;;;4.15;2.08;;;8.90;99.90;;;;;;4975157;28;20415;-82
2022/10/09 08:13:54;;;;;;;3.60;2.22;;;9.00;99.90;;;;;;4957347;28;20030;-82
2022/10/09 08:16:22;;;;;;;5.28;2.67;;;9.10;99.90;;;;;;4972903;28;20106;-82
2022/10/09 08:18:48;;;;;;;5.07;2.47;;;9.20;99.90;;;;;;4989189;28;20305;-83
2022/10/09 08:21:17;;;;;;;7.72;3.25;;;9.30;99.90;;;;;;4973875;28;20097;-82
2022/10/09 08:23:43;;;;;;;6.68;3.38;;;9.40;99.90;;;;;;4973522;28;20118;-81
2022/10/09 08:26:19;;;;;;;5.18;3.00;;;9.50;99.90;;;;;;4973791;28;20030;-82
2022/10/09 08:28:52;;;;;;;7.68;3.65;;;9.70;99.90;;;;;;4973652;28;20102;-81
2022/10/09 08:31:18;;;;;;;7.45;4.20;;;9.80;99.90;;;;;;4973874;28;20430;-82
2022/10/09 08:33:44;;;;;;;7.00;4.25;;;9.90;99.90;;;;;;4971393;28;20081;-81
2022/10/09 08:36:14;;;;;;;7.03;3.92;;;10.00;99.90;;;;;;4971584;28;20035;-81
2022/10/09 08:38:43;;;;;;;8.85;4.07;;;10.20;99.90;;;;;;4980026;28;20655;-82
2022/10/09 08:41:31;;;;;;;7.85;3.08;;;10.30;99.90;;;;;;4980311;28;20031;-81
2022/10/09 08:44:30;;;;;;;6.90;3.15;;;10.40;99.90;;;;;;4973199;28;20088;-83
2022/10/09 08:47:19;;;;;;;7.25;4.00;;;10.50;99.90;;;;;;4979078;28;20023;-81
2022/10/09 08:50:08;;;;;;;8.10;4.20;;;10.70;99.90;;;;;;4973174;28;20062;-81
2022/10/09 08:52:59;;;;;;;7.45;3.75;;;10.80;99.90;;;;;;4983348;28;20434;-81
2022/10/09 08:55:45;;;;;;;9.57;4.07;;;11.00;99.90;;;;;;4971382;28;20105;-82
2022/10/09 08:58:18;;;;;;;7.68;4.22;;;11.10;99.90;;;;;;4987703;28;20023;-82
2022/10/09 09:00:53;;;;;;;8.10;4.13;;;11.30;99.90;;;;;;4971862;28;20419;-81
2022/10/09 09:04:10;;;;;;;10.50;5.53;;;11.40;99.90;;;;;;4970816;28;20122;-83
2022/10/09 09:06:56;;;;;;;9.18;4.07;;;11.60;99.90;;;;;;4963708;28;20441;-81
2022/10/09 09:09:32;;;;;;;9.07;4.03;;;11.80;99.90;;;;;;4976941;28;20040;-81
2022/10/09 09:12:35;;;;;;;12.75;5.53;;;12.20;99.90;;;;;;4974983;28;20525;-82
2022/10/09 09:15:37;;;;;;;7.78;4.13;;;13.60;99.90;;;;;;4991904;28;20482;-81
2022/10/09 09:18:36;;;;;;;6.88;3.38;;;15.70;99.90;;;;;;4974598;28;20109;-83
2022/10/09 09:21:18;;;;;;;8.18;3.78;;;17.50;99.90;;;;;;4988170;28;20145;-81
2022/10/09 09:23:47;;;;;;;7.15;3.33;;;18.60;99.90;;;;;;4989124;28;20169;-81
2022/10/09 09:26:20;;;;;;;9.20;3.70;;;19.30;99.90;;;;;;4974006;28;20490;-82
2022/10/09 09:28:53;;;;;;;7.80;3.78;;;19.90;99.90;;;;;;4974343;28;20442;-82
2022/10/09 09:31:29;;;;;;;9.77;3.97;;;20.40;99.90;;;;;;4980811;28;20034;-84
2022/10/09 09:34:12;;;;;;;8.50;3.00;;;20.60;99.90;;;;;;4975886;28;20042;-83
2022/10/09 09:36:44;;;;;;;7.60;2.90;;;20.90;99.90;;;;;;4974788;28;20057;-82
2022/10/09 09:39:12;;;;;;;6.60;2.70;;;21.10;99.90;;;;;;4980757;28;20035;-83
2022/10/09 09:41:43;;;;;;;4.65;2.10;;;21.30;99.90;;;;;;4972551;28;20446;-82
2022/10/09 09:44:14;;;;;;;8.52;2.78;;;21.80;99.90;;;;;;4974010;28;20500;-82
2022/10/09 09:46:42;;;;;;;8.00;2.80;;;22.10;99.90;;;;;;4974475;28;20109;-82
2022/10/09 09:49:28;;;;;;;4.80;2.13;;;22.10;99.90;;;;;;4974641;28;20382;-82
2022/10/09 09:52:00;;;;;;;4.93;2.15;;;22.40;99.90;;;;;;4990903;28;20122;-81
2022/10/09 09:54:29;;;;;;;4.68;2.65;;;23.00;99.90;;;;;;4975337;28;20030;-81
2022/10/09 09:56:59;;;;;;;6.28;1.80;;;23.20;99.90;;;;;;4988673;28;20023;-81
2022/10/09 09:59:41;;;;;;;6.90;1.88;;;23.50;99.90;;;;;;4976815;28;20102;-82
2022/10/09 10:02:20;;;;;;;5.00;1.90;;;24.00;99.90;;;;;;4982574;28;20066;-83
2022/10/09 10:05:01;;;;;;;5.60;2.10;;;24.30;99.90;;;;;;4984834;28;20029;-82
2022/10/09 10:07:48;;;;;;;5.57;2.55;;;24.30;99.90;;;;;;4991250;28;20058;-82
2022/10/09 10:10:22;;;;;;;5.43;2.03;;;24.40;99.90;;;;;;4972323;28;20062;-82
2022/10/09 10:12:59;;;;;;;5.15;2.08;;;24.60;99.90;;;;;;4975183;28;20053;-83
2022/10/09 10:15:28;;;;;;;4.20;1.60;;;24.80;99.10;;;;;;4975700;28;20383;-81
2022/10/09 10:18:18;;;;;;;5.32;1.95;;;25.00;99.30;;;;;;4974294;28;20026;-83
2022/10/09 10:20:50;;;;;;;4.00;1.30;;;25.50;99.20;;;;;;4975089;28;20027;-82
2022/10/09 10:23:25;;;;;;;5.35;1.73;;;26.00;99.20;;;;;;4973645;28;20023;-82
2022/10/09 10:25:59;;;;;;;3.08;1.48;;;26.40;99.00;;;;;;4974588;28;20073;-81
2022/10/09 10:28:31;;;;;;;4.47;1.38;;;26.50;98.70;;;;;;4971528;28;20089;-82
2022/10/09 10:31:00;;;;;;;4.88;1.35;;;26.60;98.70;;;;;;4974390;28;20019;-82
2022/10/09 10:33:30;;;;;;;4.65;1.60;;;26.40;97.90;;;;;;4973186;28;20022;-83
2022/10/09 10:35:58;;;;;;;3.53;1.27;;;26.20;97.00;;;;;;4968199;28;20465;-83
2022/10/09 10:38:37;;;;;;;4.55;1.52;;;26.00;97.00;;;;;;4965408;28;20061;-83
2022/10/09 10:41:31;;;;;;;3.83;1.60;;;25.80;96.00;;;;;;4969920;28;20123;-84
2022/10/09 10:44:25;;;;;;;4.97;1.73;;;25.50;95.80;;;;;;4963456;28;20035;-82
2022/10/09 10:47:02;;;;;;;2.55;1.10;;;25.20;95.30;;;;;;4975500;28;20058;-81
2022/10/09 10:49:29;;;;;;;4.53;1.20;;;24.80;95.70;;;;;;4971068;28;20837;-82
2022/10/09 10:52:16;;;;;;;4.15;1.25;;;25.10;95.80;;;;;;4978398;28;20487;-82
2022/10/09 10:54:55;;;;;;;5.78;1.80;;;25.60;95.30;;;;;;4981821;28;20062;-85
2022/10/09 10:57:31;;;;;;;3.95;1.38;;;25.80;94.10;;;;;;4988863;28;20027;-81
2022/10/09 11:00:16;;;;;;;3.33;1.55;;;25.70;94.30;;;;;;4979267;28;20030;-82
2022/10/09 11:02:57;;;;;;;3.45;1.20;;;26.10;94.60;;;;;;4959273;28;20034;-82
2022/10/09 11:06:07;;;;;;;5.85;1.73;;;26.40;94.50;;;;;;4975860;28;20089;-83
2022/10/09 11:08:57;;;;;;;3.78;1.25;;;26.30;94.10;;;;;;4962410;28;20051;-82
2022/10/09 11:11:48;;;;;;;5.68;1.60;;;26.20;93.80;;;;;;4975482;28;20166;-83
2022/10/09 11:14:43;;;;;;;4.30;1.35;;;26.60;94.20;;;;;;4971969;28;20050;-84
2022/10/09 11:17:37;;;;;;;3.75;1.27;;;26.70;94.10;;;;;;4968613;28;20380;-82
2022/10/09 11:20:06;;;;;;;3.83;1.20;;;26.70;93.70;;;;;;4970591;28;20050;-82
2022/10/09 11:23:02;;;;;;;3.58;1.20;;;26.60;93.80;;;;;;4971244;28;20506;-82
2022/10/09 11:25:34;;;;;;;3.72;1.33;;;26.70;93.30;;;;;;4967332;28;20102;-82
2022/10/09 11:28:22;;;;;;;3.17;1.17;;;26.50;93.40;;;;;;4984471;28;20027;-81
2022/10/09 11:31:18;;;;;;;4.63;1.90;;;26.60;93.60;;;;;;4970593;28;20270;-83
2022/10/09 11:34:06;;;;;;;2.85;1.20;;;26.80;93.10;;;;;;4969418;28;20042;-83
2022/10/09 11:36:43;;;;;;;4.35;1.63;;;26.90;93.30;;;;;;4967896;28;20128;-83
2022/10/09 11:39:16;;;;;;;2.95;1.10;;;27.00;92.60;;;;;;4983200;28;20035;-82
2022/10/09 11:41:45;;;;;;;3.97;1.67;;;27.10;92.80;;;;;;4970024;28;20027;-82
2022/10/09 11:44:35;;;;;;;4.03;1.30;;;27.40;92.80;;;;;;4970856;28;20086;-81
2022/10/09 11:47:34;;;;;;;4.65;1.55;;;27.30;92.30;;;;;;4970883;28;20031;-82
2022/10/09 11:50:25;;;;;;;2.38;1.17;;;27.10;92.00;;;;;;4968688;28;20041;-82
2022/10/09 11:53:06;;;;;;;3.35;1.42;;;27.10;92.10;;;;;;4967799;28;20041;-82
2022/10/09 11:55:33;;;;;;;2.33;1.00;;;27.40;91.90;;;;;;4989714;28;20030;-82
2022/10/09 11:58:22;;;;;;;4.47;1.13;;;27.50;92.20;;;;;;4980248;28;20034;-82
2022/10/09 12:00:55;;;;;;;3.78;1.15;;;27.70;92.40;;;;;;4970814;28;20038;-82
2022/10/09 12:03:34;;;;;;;3.17;1.30;;;27.90;92.10;;;;;;4970923;28;20031;-82
2022/10/09 12:06:11;;;;;;;3.25;1.35;;;27.90;91.50;;;;;;4966887;28;20053;-81
2022/10/09 12:08:43;;;;;;;3.83;1.20;;;27.80;91.40;;;;;;4970144;28;20026;-82
2022/10/09 12:11:14;;;;;;;3.60;1.17;;;27.80;91.00;;;;;;4973389;28;20055;-81
2022/10/09 12:13:45;;;;;;;3.97;1.40;;;27.80;90.90;;;;;;4968133;28;20030;-82
2022/10/09 12:16:31;;;;;;;4.18;1.10;;;27.80;91.00;;;;;;4983029;28;20023;-82
2022/10/09 12:19:00;;;;;;;4.03;1.30;;;27.90;91.20;;;;;;4969954;28;20027;-82
2022/10/09 12:21:42;;;;;;;2.78;0.68;;;27.80;91.10;;;;;;4954240;28;20030;-82
2022/10/09 12:24:16;;;;;;;3.05;0.90;;;27.80;91.30;;;;;;4971298;28;20081;-82
2022/10/09 12:26:44;;;;;;;2.00;0.73;;;28.00;91.30;;;;;;4969796;28;20030;-82
2022/10/09 12:29:24;;;;;;;2.58;0.90;;;28.10;91.00;;;;;;4969782;28;20490;-83
2022/10/09 12:31:54;;;;;;;3.55;1.00;;;28.40;91.20;;;;;;4969958;28;20033;-81
2022/10/09 12:34:33;;;;;;;1.52;0.55;;;28.30;90.80;;;;;;4963899;28;20050;-82
2022/10/09 12:37:21;;;;;;;2.00;1.00;;;28.60;90.90;;;;;;4965747;28;20148;-82
2022/10/09 12:39:49;;;;;;;1.95;0.70;;;28.40;90.80;;;;;;4965091;28;20101;-81
2022/10/09 12:42:26;;;;;;;2.70;0.90;;;28.10;90.70;;;;;;4973773;28;20031;-81
2022/10/09 12:44:54;;;;;;;3.13;0.95;;;28.30;91.10;;;;;;4973669;28;20031;-83
2022/10/09 12:47:29;;;;;;;2.40;0.77;;;28.30;90.70;;;;;;4974728;28;20062;-81
2022/10/09 12:50:18;;;;;;;2.03;1.00;;;28.20;90.70;;;;;;4968234;28;20023;-82
2022/10/09 12:52:52;;;;;;;1.75;0.70;;;28.10;90.70;;;;;;4972323;28;20101;-82
2022/10/09 12:55:40;;;;;;;2.00;1.00;;;28.30;91.10;;;;;;4975233;28;20421;-81
2022/10/09 12:58:19;;;;;;;2.38;0.82;;;28.60;91.10;;;;;;4973886;28;20122;-82
2022/10/09 13:00:52;;;;;;;3.03;1.15;;;28.50;90.60;;;;;;4972521;28;20037;-82
2022/10/09 13:03:36;;;;;;;2.90;0.90;;;28.30;90.90;;;;;;4991305;28;20234;-84
2022/10/09 13:06:07;;;;;;;2.05;0.90;;;28.30;91.10;;;;;;4977063;28;20023;-83
2022/10/09 13:08:39;;;;;;;2.97;0.70;;;28.10;90.70;;;;;;4976918;28;20034;-84
2022/10/09 13:11:23;;;;;;;2.25;0.70;;;28.00;90.70;;;;;;4967725;28;20126;-81
2022/10/09 13:13:55;;;;;;;2.63;1.00;;;28.20;90.70;;;;;;4974542;28;20497;-83
2022/10/09 13:16:25;;;;;;;3.08;1.00;;;28.40;90.80;;;;;;4971642;28;20084;-83
2022/10/09 13:19:24;;;;;;;3.63;1.13;;;28.40;90.40;;;;;;4973600;28;21193;-81
2022/10/09 13:22:23;;;;;;;1.70;0.70;;;28.40;90.30;;;;;;4966048;28;20039;-83
2022/10/09 13:25:06;;;;;;;2.40;0.77;;;28.40;90.70;;;;;;4956263;28;20066;-82